sensor_id;sensor_type;location;lat;lon;timestamp;temperature;humidity
20345;DHT22;10330;48.816;9.278;2023-05-10T00:01:51;14.60;99.90
20345;DHT22;10330;48.816;9.278;2023-05-10T00:04:17;14.70;99.90
20345;DHT22;10330;48.816;9.278;2023-05-10T00:06:44;14.60;99.90
20345;DHT22;10330;48.816;9.278;2023-05-10T00:09:10;14.50;99.90
20345;DHT22;10330;48.816;9.278;2023-05-10T00:11:36;14.30;99.90
20345;DHT22;10330;48.816;9.278;2023-05-10T00:14:02;14.10;99.90
20345;DHT22;10330;48.816;9.278;2023-05-10T00:16:29;14.10;99.90
20345;DHT22;10330;48.816;9.278;2023-05-10T00:18:55;13.90;99.90
20345;DHT22;10330;48.816;9.278;2023-05-10T00:21:21;13.90;99.90
20345;DHT22;10330;48.816;9.278;2023-05-10T00:23:47;13.90;99.90
20345;DHT22;10330;48.816;9.278;2023-05-10T00:26:14;13.80;99.90
20345;DHT22;10330;48.816;9.278;2023-05-10T00:28:44;13.80;99.90
20345;DHT22;10330;48.816;9.278;2023-05-10T00:31:10;13.70;99.90
20345;DHT22;10330;48.816;9.278;2023-05-10T00:33:37;13.60;99.90
20345;DHT22;10330;48.816;9.278;2023-05-10T00:36:03;13.60;99.90
20345;DHT22;10330;48.816;9.278;2023-05-10T00:38:29;13.60;99.90
20345;DHT22;10330;48.816;9.278;2023-05-10T00:40:56;13.50;99.90
20345;DHT22;10330;48.816;9.278;2023-05-10T00:43:29;13.50;99.90
20345;DHT22;10330;48.816;9.278;2023-05-10T00:45:55;13.50;99.90
20345;DHT22;10330;48.816;9.278;2023-05-10T00:48:22;13.50;99.90
20345;DHT22;10330;48.816;9.278;2023-05-10T00:50:51;13.50;99.90
20345;DHT22;10330;48.816;9.278;2023-05-10T00:53:18;13.40;99.90
20345;DHT22;10330;48.816;9.278;2023-05-10T00:55:45;13.40;99.90
20345;DHT22;10330;48.816;9.278;2023-05-10T00:58:11;13.40;99.90
20345;DHT22;10330;48.816;9.278;2023-05-10T01:00:38;13.50;99.90
20345;DHT22;10330;48.816;9.278;2023-05-10T01:03:07;13.40;99.90
20345;DHT22;10330;48.816;9.278;2023-05-10T01:05:33;13.30;99.90
20345;DHT22;10330;48.816;9.278;2023-05-10T01:07:59;13.30;99.90
20345;DHT22;10330;48.816;9.278;2023-05-10T01:10:26;13.20;99.90
20345;DHT22;10330;48.816;9.278;2023-05-10T01:12:52;13.20;99.90
20345;DHT22;10330;48.816;9.278;2023-05-10T01:15:22;13.20;99.90
20345;DHT22;10330;48.816;9.278;2023-05-10T01:17:49;13.20;99.90
20345;DHT22;10330;48.816;9.278;2023-05-10T01:20:15;13.20;99.90
20345;DHT22;10330;48.816;9.278;2023-05-10T01:25:32;13.20;99.90
20345;DHT22;10330;48.816;9.278;2023-05-10T01:34:03;13.00;99.90
20345;DHT22;10330;48.816;9.278;2023-05-10T01:36:45;13.00;99.90
20345;DHT22;10330;48.816;9.278;2023-05-10T01:44:20;13.00;99.90
20345;DHT22;10330;48.816;9.278;2023-05-10T01:47:20;12.90;99.90
20345;DHT22;10330;48.816;9.278;2023-05-10T01:49:53;13.00;99.90
20345;DHT22;10330;48.816;9.278;2023-05-10T01:52:36;13.00;99.90
20345;DHT22;10330;48.816;9.278;2023-05-10T01:55:10;12.90;99.90
20345;DHT22;10330;48.816;9.278;2023-05-10T01:57:38;12.90;99.90
20345;DHT22;10330;48.816;9.278;2023-05-10T02:00:06;13.00;99.90
20345;DHT22;10330;48.816;9.278;2023-05-10T02:02:46;13.00;99.90
20345;DHT22;10330;48.816;9.278;2023-05-10T02:05:14;13.00;99.90
20345;DHT22;10330;48.816;9.278;2023-05-10T02:07:44;13.00;99.90
20345;DHT22;10330;48.816;9.278;2023-05-10T02:10:11;13.00;99.90
20345;DHT22;10330;48.816;9.278;2023-05-10T02:12:42;13.00;99.90
20345;DHT22;10330;48.816;9.278;2023-05-10T02:15:10;12.90;99.90
20345;DHT22;10330;48.816;9.278;2023-05-10T02:17:40;13.00;99.90
20345;DHT22;10330;48.816;9.278;2023-05-10T02:20:08;13.00;99.90
20345;DHT22;10330;48.816;9.278;2023-05-10T02:22:36;13.00;99.90
20345;DHT22;10330;48.816;9.278;2023-05-10T02:25:03;13.00;99.90
20345;DHT22;10330;48.816;9.278;2023-05-10T02:27:30;13.00;99.90
20345;DHT22;10330;48.816;9.278;2023-05-10T02:29:57;13.00;99.90
20345;DHT22;10330;48.816;9.278;2023-05-10T02:32:25;13.00;99.90
20345;DHT22;10330;48.816;9.278;2023-05-10T02:34:53;13.00;99.90
20345;DHT22;10330;48.816;9.278;2023-05-10T02:37:21;13.10;99.90
20345;DHT22;10330;48.816;9.278;2023-05-10T02:39:49;13.00;99.90
20345;DHT22;10330;48.816;9.278;2023-05-10T02:42:24;13.10;99.90
20345;DHT22;10330;48.816;9.278;2023-05-10T02:44:54;13.10;99.90
20345;DHT22;10330;48.816;9.278;2023-05-10T02:47:21;13.00;99.90
20345;DHT22;10330;48.816;9.278;2023-05-10T02:49:48;13.00;99.90
20345;DHT22;10330;48.816;9.278;2023-05-10T02:52:26;13.10;99.90
20345;DHT22;10330;48.816;9.278;2023-05-10T02:54:55;13.00;99.90
20345;DHT22;10330;48.816;9.278;2023-05-10T02:57:27;13.00;99.90
20345;DHT22;10330;48.816;9.278;2023-05-10T02:59:54;13.00;99.90
20345;DHT22;10330;48.816;9.278;2023-05-10T03:02:21;13.00;99.90
20345;DHT22;10330;48.816;9.278;2023-05-10T03:04:47;13.10;99.90
20345;DHT22;10330;48.816;9.278;2023-05-10T03:07:13;13.10;99.90
20345;DHT22;10330;48.816;9.278;2023-05-10T03:09:40;13.10;99.90
20345;DHT22;10330;48.816;9.278;2023-05-10T03:15:04;13.20;99.90
20345;DHT22;10330;48.816;9.278;2023-05-10T03:20:10;13.20;99.90
20345;DHT22;10330;48.816;9.278;2023-05-10T03:22:45;13.10;99.90
20345;DHT22;10330;48.816;9.278;2023-05-10T03:25:15;13.10;99.90
20345;DHT22;10330;48.816;9.278;2023-05-10T03:27:43;13.10;99.90
20345;DHT22;10330;48.816;9.278;2023-05-10T03:30:14;13.10;99.90
20345;DHT22;10330;48.816;9.278;2023-05-10T03:32:41;13.10;99.90
20345;DHT22;10330;48.816;9.278;2023-05-10T03:35:08;13.10;99.90
20345;DHT22;10330;48.816;9.278;2023-05-10T03:37:35;13.10;99.90
20345;DHT22;10330;48.816;9.278;2023-05-10T03:40:02;13.10;99.90
20345;DHT22;10330;48.816;9.278;2023-05-10T03:42:31;13.10;99.90
20345;DHT22;10330;48.816;9.278;2023-05-10T03:44:57;13.10;99.90
20345;DHT22;10330;48.816;9.278;2023-05-10T03:47:24;13.10;99.90
20345;DHT22;10330;48.816;9.278;2023-05-10T03:49:50;13.20;99.90
20345;DHT22;10330;48.816;9.278;2023-05-10T03:52:17;13.10;99.90
20345;DHT22;10330;48.816;9.278;2023-05-10T03:54:44;13.10;99.90
20345;DHT22;10330;48.816;9.278;2023-05-10T03:57:10;13.10;99.90
20345;DHT22;10330;48.816;9.278;2023-05-10T03:59:36;13.10;99.90
20345;DHT22;10330;48.816;9.278;2023-05-10T04:02:03;13.10;99.90
20345;DHT22;10330;48.816;9.278;2023-05-10T04:04:29;13.10;99.90
20345;DHT22;10330;48.816;9.278;2023-05-10T04:06:56;13.10;99.90
20345;DHT22;10330;48.816;9.278;2023-05-10T04:09:22;13.10;99.90
20345;DHT22;10330;48.816;9.278;2023-05-10T04:11:51;13.10;99.90
20345;DHT22;10330;48.816;9.278;2023-05-10T04:14:17;13.10;99.90
20345;DHT22;10330;48.816;9.278;2023-05-10T04:16:43;13.10;99.90
20345;DHT22;10330;48.816;9.278;2023-05-10T04:19:10;13.10;99.90
20345;DHT22;10330;48.816;9.278;2023-05-10T04:21:36;13.10;99.90
20345;DHT22;10330;48.816;9.278;2023-05-10T04:24:03;13.10;99.90
20345;DHT22;10330;48.816;9.278;2023-05-10T04:26:29;13.20;99.90
20345;DHT22;10330;48.816;9.278;2023-05-10T04:28:55;13.20;99.90
20345;DHT22;10330;48.816;9.278;2023-05-10T04:31:22;13.20;99.90
20345;DHT22;10330;48.816;9.278;2023-05-10T04:33:48;13.20;99.90
20345;DHT22;10330;48.816;9.278;2023-05-10T04:36:15;13.20;99.90
20345;DHT22;10330;48.816;9.278;2023-05-10T04:38:41;13.20;99.90
20345;DHT22;10330;48.816;9.278;2023-05-10T04:41:09;13.20;99.90
20345;DHT22;10330;48.816;9.278;2023-05-10T04:43:36;13.20;99.90
20345;DHT22;10330;48.816;9.278;2023-05-10T04:46:04;13.20;99.90
20345;DHT22;10330;48.816;9.278;2023-05-10T04:48:30;13.20;99.90
20345;DHT22;10330;48.816;9.278;2023-05-10T04:50:56;13.20;99.90
20345;DHT22;10330;48.816;9.278;2023-05-10T04:53:23;13.20;99.90
20345;DHT22;10330;48.816;9.278;2023-05-10T04:55:49;13.30;99.90
20345;DHT22;10330;48.816;9.278;2023-05-10T04:58:15;13.30;99.90
20345;DHT22;10330;48.816;9.278;2023-05-10T05:00:42;13.30;99.90
20345;DHT22;10330;48.816;9.278;2023-05-10T05:03:08;13.30;99.90
20345;DHT22;10330;48.816;9.278;2023-05-10T05:05:35;13.30;99.90
20345;DHT22;10330;48.816;9.278;2023-05-10T05:08:01;13.30;99.90
20345;DHT22;10330;48.816;9.278;2023-05-10T05:10:28;13.40;99.90
20345;DHT22;10330;48.816;9.278;2023-05-10T05:12:54;13.40;99.90
20345;DHT22;10330;48.816;9.278;2023-05-10T05:15:20;13.40;99.90
20345;DHT22;10330;48.816;9.278;2023-05-10T05:17:47;13.50;99.90
20345;DHT22;10330;48.816;9.278;2023-05-10T05:20:13;13.50;99.90
20345;DHT22;10330;48.816;9.278;2023-05-10T05:22:48;13.60;99.90
20345;DHT22;10330;48.816;9.278;2023-05-10T05:25:48;13.70;99.90
20345;DHT22;10330;48.816;9.278;2023-05-10T07:30:08;14.90;99.90
20345;DHT22;10330;48.816;9.278;2023-05-10T09:06:20;15.70;99.90
20345;DHT22;10330;48.816;9.278;2023-05-10T09:08:56;15.90;99.90
20345;DHT22;10330;48.816;9.278;2023-05-10T09:22:25;16.30;99.90
20345;DHT22;10330;48.816;9.278;2023-05-10T09:25:15;16.40;99.90
20345;DHT22;10330;48.816;9.278;2023-05-10T09:27:54;16.40;99.90
20345;DHT22;10330;48.816;9.278;2023-05-10T09:32:52;16.40;99.90
20345;DHT22;10330;48.816;9.278;2023-05-10T09:35:36;16.50;99.90
20345;DHT22;10330;48.816;9.278;2023-05-10T09:38:44;16.60;99.90
20345;DHT22;10330;48.816;9.278;2023-05-10T09:41:40;16.50;99.90
20345;DHT22;10330;48.816;9.278;2023-05-10T09:44:11;16.30;99.90
20345;DHT22;10330;48.816;9.278;2023-05-10T09:46:49;16.20;99.90
20345;DHT22;10330;48.816;9.278;2023-05-10T09:57:40;16.70;99.90
20345;DHT22;10330;48.816;9.278;2023-05-10T10:01:09;16.70;99.90
20345;DHT22;10330;48.816;9.278;2023-05-10T10:15:43;16.20;99.90
20345;DHT22;10330;48.816;9.278;2023-05-10T10:44:47;16.40;99.90
20345;DHT22;10330;48.816;9.278;2023-05-10T10:48:27;16.70;99.90
20345;DHT22;10330;48.816;9.278;2023-05-10T10:55:20;16.60;99.90
20345;DHT22;10330;48.816;9.278;2023-05-10T11:13:50;16.60;99.90
20345;DHT22;10330;48.816;9.278;2023-05-10T11:16:22;16.60;99.90
20345;DHT22;10330;48.816;9.278;2023-05-10T11:19:10;16.50;99.90
20345;DHT22;10330;48.816;9.278;2023-05-10T11:22:12;16.40;99.90
20345;DHT22;10330;48.816;9.278;2023-05-10T11:25:27;16.30;99.90
20345;DHT22;10330;48.816;9.278;2023-05-10T11:27:54;16.30;99.90
20345;DHT22;10330;48.816;9.278;2023-05-10T11:30:20;16.30;99.90
20345;DHT22;10330;48.816;9.278;2023-05-10T11:32:47;16.40;99.90
20345;DHT22;10330;48.816;9.278;2023-05-10T11:35:13;16.20;99.90
20345;DHT22;10330;48.816;9.278;2023-05-10T11:37:41;15.90;99.90
20345;DHT22;10330;48.816;9.278;2023-05-10T11:40:10;15.90;99.90
20345;DHT22;10330;48.816;9.278;2023-05-10T11:42:42;16.00;99.90
20345;DHT22;10330;48.816;9.278;2023-05-10T11:45:11;16.00;99.90
20345;DHT22;10330;48.816;9.278;2023-05-10T11:51:01;16.30;99.90
20345;DHT22;10330;48.816;9.278;2023-05-10T11:53:30;16.30;99.90
20345;DHT22;10330;48.816;9.278;2023-05-10T11:56:07;16.40;99.90
20345;DHT22;10330;48.816;9.278;2023-05-10T11:58:37;16.50;99.90
20345;DHT22;10330;48.816;9.278;2023-05-10T12:01:05;16.50;99.90
20345;DHT22;10330;48.816;9.278;2023-05-10T12:03:32;16.50;99.90
20345;DHT22;10330;48.816;9.278;2023-05-10T12:06:00;16.60;99.90
20345;DHT22;10330;48.816;9.278;2023-05-10T12:08:31;16.60;99.90
20345;DHT22;10330;48.816;9.278;2023-05-10T12:11:08;16.50;99.90
20345;DHT22;10330;48.816;9.278;2023-05-10T12:13:54;16.40;99.90
20345;DHT22;10330;48.816;9.278;2023-05-10T12:16:22;16.30;99.90
20345;DHT22;10330;48.816;9.278;2023-05-10T12:18:59;16.30;99.90
20345;DHT22;10330;48.816;9.278;2023-05-10T12:21:27;16.10;99.90
20345;DHT22;10330;48.816;9.278;2023-05-10T12:23:56;15.90;99.90
20345;DHT22;10330;48.816;9.278;2023-05-10T12:26:25;15.90;99.90
20345;DHT22;10330;48.816;9.278;2023-05-10T12:29:17;15.90;99.90
20345;DHT22;10330;48.816;9.278;2023-05-10T12:31:55;15.80;99.90
20345;DHT22;10330;48.816;9.278;2023-05-10T12:34:35;15.80;99.90
20345;DHT22;10330;48.816;9.278;2023-05-10T12:37:05;15.80;99.90
20345;DHT22;10330;48.816;9.278;2023-05-10T12:39:54;15.80;99.90
20345;DHT22;10330;48.816;9.278;2023-05-10T12:42:45;15.90;99.90
20345;DHT22;10330;48.816;9.278;2023-05-10T12:45:26;16.00;99.90
20345;DHT22;10330;48.816;9.278;2023-05-10T12:47:53;16.20;99.90
20345;DHT22;10330;48.816;9.278;2023-05-10T12:50:19;16.20;99.90
20345;DHT22;10330;48.816;9.278;2023-05-10T12:52:49;16.20;99.90
20345;DHT22;10330;48.816;9.278;2023-05-10T12:55:18;16.40;99.90
20345;DHT22;10330;48.816;9.278;2023-05-10T12:57:47;16.50;99.90
20345;DHT22;10330;48.816;9.278;2023-05-10T13:00:14;16.70;99.90
20345;DHT22;10330;48.816;9.278;2023-05-10T13:02:41;16.70;99.90
20345;DHT22;10330;48.816;9.278;2023-05-10T13:05:07;16.80;99.90
20345;DHT22;10330;48.816;9.278;2023-05-10T13:07:34;16.90;99.90
20345;DHT22;10330;48.816;9.278;2023-05-10T13:10:00;16.90;99.90
20345;DHT22;10330;48.816;9.278;2023-05-10T13:12:26;16.70;99.90
20345;DHT22;10330;48.816;9.278;2023-05-10T13:14:53;16.50;99.90
20345;DHT22;10330;48.816;9.278;2023-05-10T13:17:19;16.40;99.90
20345;DHT22;10330;48.816;9.278;2023-05-10T13:19:45;16.40;99.90
20345;DHT22;10330;48.816;9.278;2023-05-10T13:22:11;16.20;99.90
20345;DHT22;10330;48.816;9.278;2023-05-10T13:24:37;16.20;99.90
20345;DHT22;10330;48.816;9.278;2023-05-10T13:27:04;16.10;99.90
20345;DHT22;10330;48.816;9.278;2023-05-10T13:29:30;16.00;99.90
20345;DHT22;10330;48.816;9.278;2023-05-10T13:31:56;16.00;99.90
20345;DHT22;10330;48.816;9.278;2023-05-10T13:34:22;16.00;99.90
20345;DHT22;10330;48.816;9.278;2023-05-10T13:36:50;15.80;99.90
20345;DHT22;10330;48.816;9.278;2023-05-10T13:39:16;15.80;99.90
20345;DHT22;10330;48.816;9.278;2023-05-10T13:41:43;15.80;99.90
20345;DHT22;10330;48.816;9.278;2023-05-10T13:44:11;15.90;99.90
20345;DHT22;10330;48.816;9.278;2023-05-10T13:46:38;15.90;99.90
20345;DHT22;10330;48.816;9.278;2023-05-10T13:49:04;16.00;99.90
20345;DHT22;10330;48.816;9.278;2023-05-10T13:51:31;16.20;99.90
20345;DHT22;10330;48.816;9.278;2023-05-10T13:53:58;16.50;99.90
20345;DHT22;10330;48.816;9.278;2023-05-10T13:56:24;16.90;99.90
20345;DHT22;10330;48.816;9.278;2023-05-10T13:58:50;17.00;99.90
20345;DHT22;10330;48.816;9.278;2023-05-10T14:01:17;17.10;99.90
20345;DHT22;10330;48.816;9.278;2023-05-10T14:03:43;17.20;99.90
20345;DHT22;10330;48.816;9.278;2023-05-10T14:06:09;17.00;99.90
20345;DHT22;10330;48.816;9.278;2023-05-10T14:08:36;16.80;99.90
20345;DHT22;10330;48.816;9.278;2023-05-10T14:11:02;16.70;99.90
20345;DHT22;10330;48.816;9.278;2023-05-10T14:13:29;16.60;99.90
20345;DHT22;10330;48.816;9.278;2023-05-10T14:15:55;16.70;99.90
20345;DHT22;10330;48.816;9.278;2023-05-10T14:18:21;16.70;99.90
20345;DHT22;10330;48.816;9.278;2023-05-10T14:20:47;16.60;99.90
20345;DHT22;10330;48.816;9.278;2023-05-10T14:23:13;16.50;99.90
20345;DHT22;10330;48.816;9.278;2023-05-10T14:25:40;16.60;99.90
20345;DHT22;10330;48.816;9.278;2023-05-10T14:28:07;16.70;99.90
20345;DHT22;10330;48.816;9.278;2023-05-10T14:30:35;16.90;99.90
20345;DHT22;10330;48.816;9.278;2023-05-10T14:33:02;16.90;99.90
20345;DHT22;10330;48.816;9.278;2023-05-10T14:35:29;17.10;99.90
20345;DHT22;10330;48.816;9.278;2023-05-10T14:37:57;16.90;99.90
20345;DHT22;10330;48.816;9.278;2023-05-10T14:40:23;17.00;99.90
20345;DHT22;10330;48.816;9.278;2023-05-10T14:42:50;17.10;99.90
20345;DHT22;10330;48.816;9.278;2023-05-10T14:45:18;17.30;99.90
20345;DHT22;10330;48.816;9.278;2023-05-10T14:47:44;17.30;99.90
20345;DHT22;10330;48.816;9.278;2023-05-10T14:50:10;17.20;99.90
20345;DHT22;10330;48.816;9.278;2023-05-10T14:52:36;17.30;99.90
20345;DHT22;10330;48.816;9.278;2023-05-10T14:55:03;17.30;99.90
20345;DHT22;10330;48.816;9.278;2023-05-10T14:57:29;17.30;99.90
20345;DHT22;10330;48.816;9.278;2023-05-10T14:59:56;17.30;99.90
20345;DHT22;10330;48.816;9.278;2023-05-10T15:02:22;17.20;99.90
20345;DHT22;10330;48.816;9.278;2023-05-10T15:04:52;17.30;99.90
20345;DHT22;10330;48.816;9.278;2023-05-10T15:07:18;17.30;99.90
20345;DHT22;10330;48.816;9.278;2023-05-10T15:09:47;17.30;99.90
20345;DHT22;10330;48.816;9.278;2023-05-10T15:12:13;17.30;99.90
20345;DHT22;10330;48.816;9.278;2023-05-10T15:14:39;17.40;99.90
20345;DHT22;10330;48.816;9.278;2023-05-10T15:17:06;17.40;99.90
20345;DHT22;10330;48.816;9.278;2023-05-10T15:19:33;17.40;99.90
20345;DHT22;10330;48.816;9.278;2023-05-10T15:21:59;17.40;99.90
20345;DHT22;10330;48.816;9.278;2023-05-10T15:24:28;17.60;99.90
20345;DHT22;10330;48.816;9.278;2023-05-10T15:26:55;17.40;99.90
20345;DHT22;10330;48.816;9.278;2023-05-10T15:29:23;17.40;99.90
20345;DHT22;10330;48.816;9.278;2023-05-10T15:31:53;17.40;99.90
20345;DHT22;10330;48.816;9.278;2023-05-10T15:34:22;17.30;99.90
20345;DHT22;10330;48.816;9.278;2023-05-10T15:36:49;17.40;99.90
20345;DHT22;10330;48.816;9.278;2023-05-10T15:39:15;17.40;99.90
20345;DHT22;10330;48.816;9.278;2023-05-10T15:41:41;17.20;99.90
20345;DHT22;10330;48.816;9.278;2023-05-10T15:44:10;17.30;99.90
20345;DHT22;10330;48.816;9.278;2023-05-10T15:46:39;17.50;99.90
20345;DHT22;10330;48.816;9.278;2023-05-10T15:49:05;17.70;99.90
20345;DHT22;10330;48.816;9.278;2023-05-10T15:51:37;17.80;99.90
20345;DHT22;10330;48.816;9.278;2023-05-10T15:54:07;17.80;99.90
20345;DHT22;10330;48.816;9.278;2023-05-10T15:56:44;17.80;99.90
20345;DHT22;10330;48.816;9.278;2023-05-10T15:59:13;17.90;99.90
20345;DHT22;10330;48.816;9.278;2023-05-10T16:01:40;17.70;99.90
20345;DHT22;10330;48.816;9.278;2023-05-10T16:04:06;17.70;99.90
20345;DHT22;10330;48.816;9.278;2023-05-10T16:06:35;17.70;99.90
20345;DHT22;10330;48.816;9.278;2023-05-10T16:09:01;17.60;99.90
20345;DHT22;10330;48.816;9.278;2023-05-10T16:11:27;17.60;99.90
20345;DHT22;10330;48.816;9.278;2023-05-10T16:13:53;17.60;99.90
20345;DHT22;10330;48.816;9.278;2023-05-10T16:16:23;17.70;99.90
20345;DHT22;10330;48.816;9.278;2023-05-10T16:18:49;17.80;99.90
20345;DHT22;10330;48.816;9.278;2023-05-10T16:21:18;17.60;99.90
20345;DHT22;10330;48.816;9.278;2023-05-10T16:23:45;17.40;99.90
20345;DHT22;10330;48.816;9.278;2023-05-10T16:26:11;17.40;99.90
20345;DHT22;10330;48.816;9.278;2023-05-10T16:28:37;17.50;99.90
20345;DHT22;10330;48.816;9.278;2023-05-10T16:31:05;17.40;99.90
20345;DHT22;10330;48.816;9.278;2023-05-10T16:33:31;17.30;99.90
20345;DHT22;10330;48.816;9.278;2023-05-10T16:35:57;17.30;99.90
20345;DHT22;10330;48.816;9.278;2023-05-10T16:38:23;17.20;99.90
20345;DHT22;10330;48.816;9.278;2023-05-10T16:40:50;17.20;99.90
20345;DHT22;10330;48.816;9.278;2023-05-10T16:43:16;17.30;99.90
20345;DHT22;10330;48.816;9.278;2023-05-10T16:45:42;17.30;99.90
20345;DHT22;10330;48.816;9.278;2023-05-10T16:48:09;17.30;99.90
20345;DHT22;10330;48.816;9.278;2023-05-10T16:50:35;17.40;99.90
20345;DHT22;10330;48.816;9.278;2023-05-10T16:53:01;17.40;99.90
20345;DHT22;10330;48.816;9.278;2023-05-10T16:55:28;17.40;99.90
20345;DHT22;10330;48.816;9.278;2023-05-10T16:57:54;17.40;99.90
20345;DHT22;10330;48.816;9.278;2023-05-10T17:00:26;17.30;99.90
20345;DHT22;10330;48.816;9.278;2023-05-10T17:02:52;17.30;99.90
20345;DHT22;10330;48.816;9.278;2023-05-10T17:05:20;17.20;99.90
20345;DHT22;10330;48.816;9.278;2023-05-10T17:07:46;17.10;99.90
20345;DHT22;10330;48.816;9.278;2023-05-10T17:10:12;17.00;99.90
20345;DHT22;10330;48.816;9.278;2023-05-10T17:12:39;17.00;99.90
20345;DHT22;10330;48.816;9.278;2023-05-10T17:15:08;16.90;99.90
20345;DHT22;10330;48.816;9.278;2023-05-10T17:17:37;16.70;99.90
20345;DHT22;10330;48.816;9.278;2023-05-10T17:20:04;16.60;99.90
20345;DHT22;10330;48.816;9.278;2023-05-10T17:22:33;16.50;99.90
20345;DHT22;10330;48.816;9.278;2023-05-10T17:24:59;16.40;99.90
20345;DHT22;10330;48.816;9.278;2023-05-10T17:27:27;16.30;99.90
20345;DHT22;10330;48.816;9.278;2023-05-10T17:29:58;16.30;99.90
20345;DHT22;10330;48.816;9.278;2023-05-10T17:32:24;16.30;99.90
20345;DHT22;10330;48.816;9.278;2023-05-10T17:34:51;16.40;99.90
20345;DHT22;10330;48.816;9.278;2023-05-10T17:37:17;16.40;99.90
20345;DHT22;10330;48.816;9.278;2023-05-10T17:39:44;16.30;99.90
20345;DHT22;10330;48.816;9.278;2023-05-10T17:42:10;16.30;99.90
20345;DHT22;10330;48.816;9.278;2023-05-10T17:44:37;16.30;99.90
20345;DHT22;10330;48.816;9.278;2023-05-10T17:47:03;16.30;99.90
20345;DHT22;10330;48.816;9.278;2023-05-10T17:49:31;16.30;99.90
20345;DHT22;10330;48.816;9.278;2023-05-10T17:51:57;16.20;99.90
20345;DHT22;10330;48.816;9.278;2023-05-10T17:54:23;16.20;99.90
20345;DHT22;10330;48.816;9.278;2023-05-10T17:56:49;16.10;99.90
20345;DHT22;10330;48.816;9.278;2023-05-10T17:59:16;16.00;99.90
20345;DHT22;10330;48.816;9.278;2023-05-10T18:01:42;15.90;99.90
20345;DHT22;10330;48.816;9.278;2023-05-10T18:04:09;15.90;99.90
20345;DHT22;10330;48.816;9.278;2023-05-10T18:06:36;15.80;99.90
20345;DHT22;10330;48.816;9.278;2023-05-10T18:09:03;15.80;99.90
20345;DHT22;10330;48.816;9.278;2023-05-10T18:11:34;15.80;99.90
20345;DHT22;10330;48.816;9.278;2023-05-10T18:14:01;15.80;99.90
20345;DHT22;10330;48.816;9.278;2023-05-10T18:16:27;15.80;99.90
20345;DHT22;10330;48.816;9.278;2023-05-10T18:18:54;15.70;99.90
20345;DHT22;10330;48.816;9.278;2023-05-10T18:21:20;15.70;99.90
20345;DHT22;10330;48.816;9.278;2023-05-10T18:23:46;15.70;99.90
20345;DHT22;10330;48.816;9.278;2023-05-10T18:26:12;15.60;99.90
20345;DHT22;10330;48.816;9.278;2023-05-10T18:28:38;15.60;99.90
20345;DHT22;10330;48.816;9.278;2023-05-10T18:31:05;15.50;99.90
20345;DHT22;10330;48.816;9.278;2023-05-10T18:33:31;15.40;99.90
20345;DHT22;10330;48.816;9.278;2023-05-10T18:35:57;15.40;99.90
20345;DHT22;10330;48.816;9.278;2023-05-10T18:42:22;15.40;99.90
20345;DHT22;10330;48.816;9.278;2023-05-10T18:44:49;15.30;99.90
20345;DHT22;10330;48.816;9.278;2023-05-10T18:47:15;15.30;99.90
20345;DHT22;10330;48.816;9.278;2023-05-10T18:49:41;15.30;99.90
20345;DHT22;10330;48.816;9.278;2023-05-10T18:52:10;15.20;99.90
20345;DHT22;10330;48.816;9.278;2023-05-10T18:54:36;15.20;99.90
20345;DHT22;10330;48.816;9.278;2023-05-10T18:57:02;15.10;99.90
20345;DHT22;10330;48.816;9.278;2023-05-10T18:59:29;15.00;99.90
20345;DHT22;10330;48.816;9.278;2023-05-10T19:01:55;14.90;99.90
20345;DHT22;10330;48.816;9.278;2023-05-10T19:04:22;14.90;99.90
20345;DHT22;10330;48.816;9.278;2023-05-10T19:06:48;14.80;99.90
20345;DHT22;10330;48.816;9.278;2023-05-10T19:09:29;14.80;99.90
20345;DHT22;10330;48.816;9.278;2023-05-10T19:11:55;14.70;99.90
20345;DHT22;10330;48.816;9.278;2023-05-10T19:14:22;14.60;99.90
20345;DHT22;10330;48.816;9.278;2023-05-10T19:16:52;14.50;99.90
20345;DHT22;10330;48.816;9.278;2023-05-10T19:19:35;14.50;99.90
20345;DHT22;10330;48.816;9.278;2023-05-10T19:22:11;14.50;99.90
20345;DHT22;10330;48.816;9.278;2023-05-10T19:24:39;14.40;99.90
20345;DHT22;10330;48.816;9.278;2023-05-10T19:27:08;14.40;99.90
20345;DHT22;10330;48.816;9.278;2023-05-10T19:29:41;14.40;99.90
20345;DHT22;10330;48.816;9.278;2023-05-10T19:32:07;14.30;99.90
20345;DHT22;10330;48.816;9.278;2023-05-10T19:34:37;14.40;99.90
20345;DHT22;10330;48.816;9.278;2023-05-10T19:37:36;14.40;99.90
20345;DHT22;10330;48.816;9.278;2023-05-10T19:40:12;14.30;99.90
20345;DHT22;10330;48.816;9.278;2023-05-10T19:42:42;14.30;99.90
20345;DHT22;10330;48.816;9.278;2023-05-10T19:45:09;14.20;99.90
20345;DHT22;10330;48.816;9.278;2023-05-10T19:47:36;14.20;99.90
20345;DHT22;10330;48.816;9.278;2023-05-10T19:50:03;14.20;99.90
20345;DHT22;10330;48.816;9.278;2023-05-10T19:52:29;14.20;99.90
20345;DHT22;10330;48.816;9.278;2023-05-10T19:55:06;14.10;99.90
20345;DHT22;10330;48.816;9.278;2023-05-10T19:57:41;14.20;99.90
20345;DHT22;10330;48.816;9.278;2023-05-10T20:00:07;14.10;99.90
20345;DHT22;10330;48.816;9.278;2023-05-10T20:02:37;14.00;99.90
20345;DHT22;10330;48.816;9.278;2023-05-10T20:05:16;14.10;99.90
20345;DHT22;10330;48.816;9.278;2023-05-10T20:11:04;14.00;99.90
20345;DHT22;10330;48.816;9.278;2023-05-10T20:13:31;14.00;99.90
20345;DHT22;10330;48.816;9.278;2023-05-10T20:16:01;14.00;99.90
20345;DHT22;10330;48.816;9.278;2023-05-10T20:18:51;14.00;99.90
20345;DHT22;10330;48.816;9.278;2023-05-10T20:21:24;13.90;99.90
20345;DHT22;10330;48.816;9.278;2023-05-10T20:23:51;13.90;99.90
20345;DHT22;10330;48.816;9.278;2023-05-10T20:26:18;13.90;99.90
20345;DHT22;10330;48.816;9.278;2023-05-10T20:28:47;13.90;99.90
20345;DHT22;10330;48.816;9.278;2023-05-10T20:31:13;13.90;99.90
20345;DHT22;10330;48.816;9.278;2023-05-10T20:33:42;14.00;99.90
20345;DHT22;10330;48.816;9.278;2023-05-10T20:36:11;13.90;99.90
20345;DHT22;10330;48.816;9.278;2023-05-10T20:38:38;13.90;99.90
20345;DHT22;10330;48.816;9.278;2023-05-10T20:41:04;13.90;99.90
20345;DHT22;10330;48.816;9.278;2023-05-10T20:43:30;13.90;99.90
20345;DHT22;10330;48.816;9.278;2023-05-10T20:45:57;13.90;99.90
20345;DHT22;10330;48.816;9.278;2023-05-10T20:48:31;13.90;99.90
20345;DHT22;10330;48.816;9.278;2023-05-10T20:51:01;13.90;99.90
20345;DHT22;10330;48.816;9.278;2023-05-10T20:53:45;13.90;99.90
20345;DHT22;10330;48.816;9.278;2023-05-10T20:56:19;13.90;99.90
20345;DHT22;10330;48.816;9.278;2023-05-10T20:58:48;13.80;99.90
20345;DHT22;10330;48.816;9.278;2023-05-10T21:01:15;13.80;99.90
20345;DHT22;10330;48.816;9.278;2023-05-10T21:03:41;13.80;99.90
20345;DHT22;10330;48.816;9.278;2023-05-10T21:06:08;13.80;99.90
20345;DHT22;10330;48.816;9.278;2023-05-10T21:08:34;13.80;99.90
20345;DHT22;10330;48.816;9.278;2023-05-10T21:11:07;13.70;99.90